<?xml version="1.0" encoding="UTF-8" standalone="no" ?>
<gpx xmlns="http://www.topografix.com/GPX/1/1" xmlns:xsi="http://www.w3.org/2001/XMLSchema-instance" xsi:schemaLocation="http://www.topografix.com/GPX/1/1 http://www.topografix.com/GPX/1/1/gpx.xsd" version="1.1" creator="VisuGPX - https://www.visugpx.com">
  <metadata>
    <name>footing du matin</name>
    <desc><![CDATA[fait depuis mon arrivée un jour sur deux
avec la pause traditionnelle au ponton pour dire bonjour aux pêcheurs]]></desc>
  </metadata>
  <trk>
    <name><![CDATA[Tracé actuel: 12 NOV 2016 07:46]]></name>
    <trkseg>
      <trkpt lat="14.47138" lon="-61.04427">
        <ele>17.92</ele>
        <time>2016-11-12T11:46:28Z</time>
      </trkpt>
      <trkpt lat="14.47129" lon="-61.04423">
        <ele>17.92</ele>
        <time>2016-11-12T11:46:40Z</time>
      </trkpt>
      <trkpt lat="14.47128" lon="-61.04419">
        <ele>20.32</ele>
        <time>2016-11-12T11:46:55Z</time>
      </trkpt>
      <trkpt lat="14.47123" lon="-61.04422">
        <ele>19.36</ele>
        <time>2016-11-12T11:47:10Z</time>
      </trkpt>
      <trkpt lat="14.47111" lon="-61.04419">
        <ele>18.4</ele>
        <time>2016-11-12T11:47:21Z</time>
      </trkpt>
      <trkpt lat="14.47106" lon="-61.04414">
        <ele>16.48</ele>
        <time>2016-11-12T11:47:32Z</time>
      </trkpt>
      <trkpt lat="14.47102" lon="-61.04409">
        <ele>13.12</ele>
        <time>2016-11-12T11:47:46Z</time>
      </trkpt>
      <trkpt lat="14.47103" lon="-61.04405">
        <ele>12.63</ele>
        <time>2016-11-12T11:47:59Z</time>
      </trkpt>
      <trkpt lat="14.47102" lon="-61.044">
        <ele>12.15</ele>
        <time>2016-11-12T11:48:14Z</time>
      </trkpt>
      <trkpt lat="14.47107" lon="-61.04398">
        <ele>11.19</ele>
        <time>2016-11-12T11:48:23Z</time>
      </trkpt>
      <trkpt lat="14.47119" lon="-61.04373">
        <ele>10.23</ele>
        <time>2016-11-12T11:48:36Z</time>
      </trkpt>
      <trkpt lat="14.47124" lon="-61.04366">
        <ele>10.23</ele>
        <time>2016-11-12T11:48:40Z</time>
      </trkpt>
      <trkpt lat="14.47135" lon="-61.04351">
        <ele>10.71</ele>
        <time>2016-11-12T11:48:48Z</time>
      </trkpt>
      <trkpt lat="14.47153" lon="-61.04333">
        <ele>10.23</ele>
        <time>2016-11-12T11:48:59Z</time>
      </trkpt>
      <trkpt lat="14.47155" lon="-61.04332">
        <ele>10.23</ele>
        <time>2016-11-12T11:49:00Z</time>
      </trkpt>
      <trkpt lat="14.47169" lon="-61.04309">
        <ele>9.75</ele>
        <time>2016-11-12T11:49:11Z</time>
      </trkpt>
      <trkpt lat="14.47189" lon="-61.04291">
        <ele>9.75</ele>
        <time>2016-11-12T11:49:22Z</time>
      </trkpt>
      <trkpt lat="14.4721" lon="-61.04271">
        <ele>9.27</ele>
        <time>2016-11-12T11:49:34Z</time>
      </trkpt>
      <trkpt lat="14.47227" lon="-61.04255">
        <ele>8.31</ele>
        <time>2016-11-12T11:49:44Z</time>
      </trkpt>
      <trkpt lat="14.47235" lon="-61.04248">
        <ele>7.83</ele>
        <time>2016-11-12T11:49:48Z</time>
      </trkpt>
      <trkpt lat="14.47243" lon="-61.0424">
        <ele>7.83</ele>
        <time>2016-11-12T11:49:53Z</time>
      </trkpt>
      <trkpt lat="14.47248" lon="-61.04233">
        <ele>8.31</ele>
        <time>2016-11-12T11:49:57Z</time>
      </trkpt>
      <trkpt lat="14.47257" lon="-61.04222">
        <ele>9.27</ele>
        <time>2016-11-12T11:50:03Z</time>
      </trkpt>
      <trkpt lat="14.47263" lon="-61.04216">
        <ele>9.27</ele>
        <time>2016-11-12T11:50:07Z</time>
      </trkpt>
      <trkpt lat="14.47281" lon="-61.04201">
        <ele>11.19</ele>
        <time>2016-11-12T11:50:18Z</time>
      </trkpt>
      <trkpt lat="14.47295" lon="-61.04181">
        <ele>12.15</ele>
        <time>2016-11-12T11:50:30Z</time>
      </trkpt>
      <trkpt lat="14.47312" lon="-61.04162">
        <ele>11.19</ele>
        <time>2016-11-12T11:50:41Z</time>
      </trkpt>
      <trkpt lat="14.47325" lon="-61.04143">
        <ele>11.19</ele>
        <time>2016-11-12T11:50:52Z</time>
      </trkpt>
      <trkpt lat="14.47338" lon="-61.0412">
        <ele>10.71</ele>
        <time>2016-11-12T11:51:05Z</time>
      </trkpt>
      <trkpt lat="14.47347" lon="-61.04092">
        <ele>10.23</ele>
        <time>2016-11-12T11:51:18Z</time>
      </trkpt>
      <trkpt lat="14.47349" lon="-61.04087">
        <ele>10.23</ele>
        <time>2016-11-12T11:51:21Z</time>
      </trkpt>
      <trkpt lat="14.47361" lon="-61.04064">
        <ele>9.75</ele>
        <time>2016-11-12T11:51:34Z</time>
      </trkpt>
      <trkpt lat="14.47372" lon="-61.04039">
        <ele>9.75</ele>
        <time>2016-11-12T11:51:47Z</time>
      </trkpt>
      <trkpt lat="14.47379" lon="-61.04018">
        <ele>9.75</ele>
        <time>2016-11-12T11:51:58Z</time>
      </trkpt>
      <trkpt lat="14.47388" lon="-61.03991">
        <ele>9.75</ele>
        <time>2016-11-12T11:52:11Z</time>
      </trkpt>
      <trkpt lat="14.47389" lon="-61.03989">
        <ele>10.23</ele>
        <time>2016-11-12T11:52:12Z</time>
      </trkpt>
      <trkpt lat="14.47394" lon="-61.03982">
        <ele>10.71</ele>
        <time>2016-11-12T11:52:16Z</time>
      </trkpt>
      <trkpt lat="14.47411" lon="-61.03954">
        <ele>12.63</ele>
        <time>2016-11-12T11:52:31Z</time>
      </trkpt>
      <trkpt lat="14.47422" lon="-61.0393">
        <ele>12.63</ele>
        <time>2016-11-12T11:52:44Z</time>
      </trkpt>
      <trkpt lat="14.47433" lon="-61.03907">
        <ele>12.15</ele>
        <time>2016-11-12T11:52:56Z</time>
      </trkpt>
      <trkpt lat="14.47442" lon="-61.03892">
        <ele>12.63</ele>
        <time>2016-11-12T11:53:04Z</time>
      </trkpt>
      <trkpt lat="14.47452" lon="-61.03863">
        <ele>12.63</ele>
        <time>2016-11-12T11:53:17Z</time>
      </trkpt>
      <trkpt lat="14.47465" lon="-61.03845">
        <ele>12.63</ele>
        <time>2016-11-12T11:53:27Z</time>
      </trkpt>
      <trkpt lat="14.4747" lon="-61.03838">
        <ele>12.63</ele>
        <time>2016-11-12T11:53:31Z</time>
      </trkpt>
      <trkpt lat="14.47485" lon="-61.03811">
        <ele>12.63</ele>
        <time>2016-11-12T11:53:44Z</time>
      </trkpt>
      <trkpt lat="14.47499" lon="-61.03784">
        <ele>11.67</ele>
        <time>2016-11-12T11:53:57Z</time>
      </trkpt>
      <trkpt lat="14.47507" lon="-61.03768">
        <ele>11.67</ele>
        <time>2016-11-12T11:54:05Z</time>
      </trkpt>
      <trkpt lat="14.47523" lon="-61.0374">
        <ele>12.63</ele>
        <time>2016-11-12T11:54:20Z</time>
      </trkpt>
      <trkpt lat="14.47533" lon="-61.03717">
        <ele>11.67</ele>
        <time>2016-11-12T11:54:32Z</time>
      </trkpt>
      <trkpt lat="14.4754" lon="-61.037">
        <ele>12.63</ele>
        <time>2016-11-12T11:54:40Z</time>
      </trkpt>
      <trkpt lat="14.4755" lon="-61.03677">
        <ele>12.63</ele>
        <time>2016-11-12T11:54:52Z</time>
      </trkpt>
      <trkpt lat="14.4756" lon="-61.0365">
        <ele>12.15</ele>
        <time>2016-11-12T11:55:05Z</time>
      </trkpt>
      <trkpt lat="14.4756" lon="-61.03648">
        <ele>12.15</ele>
        <time>2016-11-12T11:55:06Z</time>
      </trkpt>
      <trkpt lat="14.47571" lon="-61.03624">
        <ele>10.71</ele>
        <time>2016-11-12T11:55:18Z</time>
      </trkpt>
      <trkpt lat="14.4758" lon="-61.03602">
        <ele>11.67</ele>
        <time>2016-11-12T11:55:28Z</time>
      </trkpt>
      <trkpt lat="14.4759" lon="-61.03586">
        <ele>11.67</ele>
        <time>2016-11-12T11:55:37Z</time>
      </trkpt>
      <trkpt lat="14.47594" lon="-61.03575">
        <ele>10.71</ele>
        <time>2016-11-12T11:55:42Z</time>
      </trkpt>
      <trkpt lat="14.47604" lon="-61.03546">
        <ele>11.19</ele>
        <time>2016-11-12T11:55:56Z</time>
      </trkpt>
      <trkpt lat="14.47611" lon="-61.03524">
        <ele>11.19</ele>
        <time>2016-11-12T11:56:07Z</time>
      </trkpt>
      <trkpt lat="14.47621" lon="-61.03498">
        <ele>11.67</ele>
        <time>2016-11-12T11:56:20Z</time>
      </trkpt>
      <trkpt lat="14.47622" lon="-61.03494">
        <ele>11.67</ele>
        <time>2016-11-12T11:56:22Z</time>
      </trkpt>
      <trkpt lat="14.47632" lon="-61.03469">
        <ele>11.67</ele>
        <time>2016-11-12T11:56:35Z</time>
      </trkpt>
      <trkpt lat="14.47641" lon="-61.03445">
        <ele>12.63</ele>
        <time>2016-11-12T11:56:47Z</time>
      </trkpt>
      <trkpt lat="14.47646" lon="-61.03435">
        <ele>12.15</ele>
        <time>2016-11-12T11:56:52Z</time>
      </trkpt>
      <trkpt lat="14.47654" lon="-61.03414">
        <ele>12.63</ele>
        <time>2016-11-12T11:57:02Z</time>
      </trkpt>
      <trkpt lat="14.47656" lon="-61.0341">
        <ele>12.63</ele>
        <time>2016-11-12T11:57:04Z</time>
      </trkpt>
      <trkpt lat="14.47669" lon="-61.03383">
        <ele>11.67</ele>
        <time>2016-11-12T11:57:17Z</time>
      </trkpt>
      <trkpt lat="14.47677" lon="-61.03361">
        <ele>12.15</ele>
        <time>2016-11-12T11:57:28Z</time>
      </trkpt>
      <trkpt lat="14.47688" lon="-61.03337">
        <ele>12.63</ele>
        <time>2016-11-12T11:57:40Z</time>
      </trkpt>
      <trkpt lat="14.47697" lon="-61.03314">
        <ele>13.6</ele>
        <time>2016-11-12T11:57:51Z</time>
      </trkpt>
      <trkpt lat="14.47708" lon="-61.03287">
        <ele>11.67</ele>
        <time>2016-11-12T11:58:04Z</time>
      </trkpt>
      <trkpt lat="14.47716" lon="-61.03264">
        <ele>11.67</ele>
        <time>2016-11-12T11:58:15Z</time>
      </trkpt>
      <trkpt lat="14.47725" lon="-61.03239">
        <ele>11.19</ele>
        <time>2016-11-12T11:58:27Z</time>
      </trkpt>
      <trkpt lat="14.47734" lon="-61.03217">
        <ele>10.71</ele>
        <time>2016-11-12T11:58:38Z</time>
      </trkpt>
      <trkpt lat="14.47742" lon="-61.03193">
        <ele>11.19</ele>
        <time>2016-11-12T11:58:49Z</time>
      </trkpt>
      <trkpt lat="14.47751" lon="-61.03167">
        <ele>11.67</ele>
        <time>2016-11-12T11:59:00Z</time>
      </trkpt>
      <trkpt lat="14.47751" lon="-61.03165">
        <ele>11.67</ele>
        <time>2016-11-12T11:59:01Z</time>
      </trkpt>
      <trkpt lat="14.47759" lon="-61.03141">
        <ele>12.15</ele>
        <time>2016-11-12T11:59:12Z</time>
      </trkpt>
      <trkpt lat="14.47764" lon="-61.03129">
        <ele>12.15</ele>
        <time>2016-11-12T11:59:18Z</time>
      </trkpt>
      <trkpt lat="14.47773" lon="-61.03103">
        <ele>12.15</ele>
        <time>2016-11-12T11:59:31Z</time>
      </trkpt>
      <trkpt lat="14.47782" lon="-61.03079">
        <ele>12.15</ele>
        <time>2016-11-12T11:59:42Z</time>
      </trkpt>
      <trkpt lat="14.47792" lon="-61.03056">
        <ele>12.63</ele>
        <time>2016-11-12T11:59:53Z</time>
      </trkpt>
      <trkpt lat="14.478" lon="-61.03032">
        <ele>12.63</ele>
        <time>2016-11-12T12:00:03Z</time>
      </trkpt>
      <trkpt lat="14.47812" lon="-61.03007">
        <ele>12.63</ele>
        <time>2016-11-12T12:00:15Z</time>
      </trkpt>
      <trkpt lat="14.4782" lon="-61.02983">
        <ele>12.15</ele>
        <time>2016-11-12T12:00:25Z</time>
      </trkpt>
      <trkpt lat="14.47827" lon="-61.02963">
        <ele>12.15</ele>
        <time>2016-11-12T12:00:33Z</time>
      </trkpt>
      <trkpt lat="14.47834" lon="-61.02944">
        <ele>11.67</ele>
        <time>2016-11-12T12:00:42Z</time>
      </trkpt>
      <trkpt lat="14.47837" lon="-61.02935">
        <ele>11.67</ele>
        <time>2016-11-12T12:00:46Z</time>
      </trkpt>
      <trkpt lat="14.47842" lon="-61.02923">
        <ele>11.67</ele>
        <time>2016-11-12T12:00:52Z</time>
      </trkpt>
      <trkpt lat="14.47851" lon="-61.02898">
        <ele>11.67</ele>
        <time>2016-11-12T12:01:04Z</time>
      </trkpt>
      <trkpt lat="14.47856" lon="-61.0288">
        <ele>11.19</ele>
        <time>2016-11-12T12:01:13Z</time>
      </trkpt>
      <trkpt lat="14.47858" lon="-61.02872">
        <ele>11.19</ele>
        <time>2016-11-12T12:01:17Z</time>
      </trkpt>
      <trkpt lat="14.47864" lon="-61.02849">
        <ele>10.23</ele>
        <time>2016-11-12T12:01:28Z</time>
      </trkpt>
      <trkpt lat="14.47871" lon="-61.02827">
        <ele>9.75</ele>
        <time>2016-11-12T12:01:39Z</time>
      </trkpt>
      <trkpt lat="14.47877" lon="-61.0281">
        <ele>9.27</ele>
        <time>2016-11-12T12:01:47Z</time>
      </trkpt>
      <trkpt lat="14.4788" lon="-61.02801">
        <ele>9.27</ele>
        <time>2016-11-12T12:01:51Z</time>
      </trkpt>
      <trkpt lat="14.47883" lon="-61.02789">
        <ele>9.27</ele>
        <time>2016-11-12T12:01:57Z</time>
      </trkpt>
      <trkpt lat="14.47888" lon="-61.02768">
        <ele>9.27</ele>
        <time>2016-11-12T12:02:08Z</time>
      </trkpt>
      <trkpt lat="14.47893" lon="-61.02748">
        <ele>10.23</ele>
        <time>2016-11-12T12:02:18Z</time>
      </trkpt>
      <trkpt lat="14.479" lon="-61.02724">
        <ele>9.75</ele>
        <time>2016-11-12T12:02:30Z</time>
      </trkpt>
      <trkpt lat="14.47906" lon="-61.02698">
        <ele>9.75</ele>
        <time>2016-11-12T12:02:42Z</time>
      </trkpt>
      <trkpt lat="14.4791" lon="-61.02685">
        <ele>10.23</ele>
        <time>2016-11-12T12:02:49Z</time>
      </trkpt>
      <trkpt lat="14.47916" lon="-61.02667">
        <ele>9.75</ele>
        <time>2016-11-12T12:02:59Z</time>
      </trkpt>
      <trkpt lat="14.47923" lon="-61.02649">
        <ele>9.75</ele>
        <time>2016-11-12T12:03:08Z</time>
      </trkpt>
      <trkpt lat="14.47924" lon="-61.0264">
        <ele>9.75</ele>
        <time>2016-11-12T12:03:12Z</time>
      </trkpt>
      <trkpt lat="14.47932" lon="-61.02614">
        <ele>10.23</ele>
        <time>2016-11-12T12:03:23Z</time>
      </trkpt>
      <trkpt lat="14.47934" lon="-61.0261">
        <ele>10.23</ele>
        <time>2016-11-12T12:03:25Z</time>
      </trkpt>
      <trkpt lat="14.47936" lon="-61.02601">
        <ele>10.23</ele>
        <time>2016-11-12T12:03:29Z</time>
      </trkpt>
      <trkpt lat="14.47939" lon="-61.02592">
        <ele>10.71</ele>
        <time>2016-11-12T12:03:34Z</time>
      </trkpt>
      <trkpt lat="14.47945" lon="-61.02589">
        <ele>11.67</ele>
        <time>2016-11-12T12:03:42Z</time>
      </trkpt>
      <trkpt lat="14.47873" lon="-61.02562">
        <ele>8.31</ele>
        <time>2016-11-12T12:07:41Z</time>
      </trkpt>
      <trkpt lat="14.47871" lon="-61.02559">
        <ele>14.08</ele>
        <time>2016-11-12T12:07:54Z</time>
      </trkpt>
      <trkpt lat="14.47876" lon="-61.0256">
        <ele>15.04</ele>
        <time>2016-11-12T12:08:08Z</time>
      </trkpt>
      <trkpt lat="14.47883" lon="-61.0256">
        <ele>15.04</ele>
        <time>2016-11-12T12:08:21Z</time>
      </trkpt>
      <trkpt lat="14.47899" lon="-61.02564">
        <ele>16</ele>
        <time>2016-11-12T12:08:39Z</time>
      </trkpt>
      <trkpt lat="14.4791" lon="-61.02567">
        <ele>15.52</ele>
        <time>2016-11-12T12:08:50Z</time>
      </trkpt>
      <trkpt lat="14.47917" lon="-61.02569">
        <ele>15.04</ele>
        <time>2016-11-12T12:08:55Z</time>
      </trkpt>
      <trkpt lat="14.47934" lon="-61.02573">
        <ele>14.08</ele>
        <time>2016-11-12T12:09:09Z</time>
      </trkpt>
      <trkpt lat="14.47948" lon="-61.02576">
        <ele>14.08</ele>
        <time>2016-11-12T12:09:22Z</time>
      </trkpt>
      <trkpt lat="14.47957" lon="-61.0258">
        <ele>14.08</ele>
        <time>2016-11-12T12:09:32Z</time>
      </trkpt>
      <trkpt lat="14.47961" lon="-61.02581">
        <ele>14.08</ele>
        <time>2016-11-12T12:09:38Z</time>
      </trkpt>
      <trkpt lat="14.47961" lon="-61.02583">
        <ele>14.08</ele>
        <time>2016-11-12T12:09:41Z</time>
      </trkpt>
      <trkpt lat="14.47953" lon="-61.02585">
        <ele>13.6</ele>
        <time>2016-11-12T12:09:49Z</time>
      </trkpt>
      <trkpt lat="14.47944" lon="-61.02588">
        <ele>13.12</ele>
        <time>2016-11-12T12:09:55Z</time>
      </trkpt>
      <trkpt lat="14.47931" lon="-61.02612">
        <ele>12.63</ele>
        <time>2016-11-12T12:10:07Z</time>
      </trkpt>
      <trkpt lat="14.47928" lon="-61.02628">
        <ele>12.15</ele>
        <time>2016-11-12T12:10:14Z</time>
      </trkpt>
      <trkpt lat="14.47925" lon="-61.02641">
        <ele>12.15</ele>
        <time>2016-11-12T12:10:20Z</time>
      </trkpt>
      <trkpt lat="14.47915" lon="-61.02664">
        <ele>9.75</ele>
        <time>2016-11-12T12:10:33Z</time>
      </trkpt>
      <trkpt lat="14.47911" lon="-61.02681">
        <ele>8.31</ele>
        <time>2016-11-12T12:10:42Z</time>
      </trkpt>
      <trkpt lat="14.47903" lon="-61.02706">
        <ele>8.79</ele>
        <time>2016-11-12T12:10:53Z</time>
      </trkpt>
      <trkpt lat="14.47896" lon="-61.02732">
        <ele>8.79</ele>
        <time>2016-11-12T12:11:04Z</time>
      </trkpt>
      <trkpt lat="14.47889" lon="-61.02758">
        <ele>8.79</ele>
        <time>2016-11-12T12:11:15Z</time>
      </trkpt>
      <trkpt lat="14.47884" lon="-61.02782">
        <ele>9.75</ele>
        <time>2016-11-12T12:11:26Z</time>
      </trkpt>
      <trkpt lat="14.4788" lon="-61.02793">
        <ele>10.23</ele>
        <time>2016-11-12T12:11:31Z</time>
      </trkpt>
      <trkpt lat="14.4787" lon="-61.02826">
        <ele>9.75</ele>
        <time>2016-11-12T12:11:45Z</time>
      </trkpt>
      <trkpt lat="14.47864" lon="-61.02854">
        <ele>10.23</ele>
        <time>2016-11-12T12:11:57Z</time>
      </trkpt>
      <trkpt lat="14.47856" lon="-61.02881">
        <ele>10.71</ele>
        <time>2016-11-12T12:12:10Z</time>
      </trkpt>
      <trkpt lat="14.47848" lon="-61.02907">
        <ele>11.19</ele>
        <time>2016-11-12T12:12:22Z</time>
      </trkpt>
      <trkpt lat="14.47838" lon="-61.02933">
        <ele>10.23</ele>
        <time>2016-11-12T12:12:34Z</time>
      </trkpt>
      <trkpt lat="14.47829" lon="-61.02961">
        <ele>10.23</ele>
        <time>2016-11-12T12:12:47Z</time>
      </trkpt>
      <trkpt lat="14.4782" lon="-61.02983">
        <ele>10.71</ele>
        <time>2016-11-12T12:12:58Z</time>
      </trkpt>
      <trkpt lat="14.47811" lon="-61.03006">
        <ele>10.71</ele>
        <time>2016-11-12T12:13:09Z</time>
      </trkpt>
      <trkpt lat="14.47801" lon="-61.03033">
        <ele>12.15</ele>
        <time>2016-11-12T12:13:22Z</time>
      </trkpt>
      <trkpt lat="14.47791" lon="-61.03058">
        <ele>12.15</ele>
        <time>2016-11-12T12:13:33Z</time>
      </trkpt>
      <trkpt lat="14.47782" lon="-61.0308">
        <ele>11.67</ele>
        <time>2016-11-12T12:13:43Z</time>
      </trkpt>
      <trkpt lat="14.47778" lon="-61.03089">
        <ele>11.67</ele>
        <time>2016-11-12T12:13:47Z</time>
      </trkpt>
      <trkpt lat="14.47769" lon="-61.03114">
        <ele>11.67</ele>
        <time>2016-11-12T12:13:58Z</time>
      </trkpt>
      <trkpt lat="14.47761" lon="-61.03141">
        <ele>12.15</ele>
        <time>2016-11-12T12:14:10Z</time>
      </trkpt>
      <trkpt lat="14.47752" lon="-61.0317">
        <ele>12.63</ele>
        <time>2016-11-12T12:14:23Z</time>
      </trkpt>
      <trkpt lat="14.47747" lon="-61.03181">
        <ele>12.15</ele>
        <time>2016-11-12T12:14:28Z</time>
      </trkpt>
      <trkpt lat="14.47742" lon="-61.03197">
        <ele>12.15</ele>
        <time>2016-11-12T12:14:36Z</time>
      </trkpt>
      <trkpt lat="14.47732" lon="-61.03225">
        <ele>11.67</ele>
        <time>2016-11-12T12:14:49Z</time>
      </trkpt>
      <trkpt lat="14.47723" lon="-61.03249">
        <ele>12.15</ele>
        <time>2016-11-12T12:15:01Z</time>
      </trkpt>
      <trkpt lat="14.47713" lon="-61.03276">
        <ele>12.15</ele>
        <time>2016-11-12T12:15:14Z</time>
      </trkpt>
      <trkpt lat="14.47702" lon="-61.03299">
        <ele>11.67</ele>
        <time>2016-11-12T12:15:26Z</time>
      </trkpt>
      <trkpt lat="14.47695" lon="-61.03319">
        <ele>11.67</ele>
        <time>2016-11-12T12:15:36Z</time>
      </trkpt>
      <trkpt lat="14.47686" lon="-61.03344">
        <ele>13.12</ele>
        <time>2016-11-12T12:15:48Z</time>
      </trkpt>
      <trkpt lat="14.47674" lon="-61.03366">
        <ele>13.6</ele>
        <time>2016-11-12T12:15:59Z</time>
      </trkpt>
      <trkpt lat="14.47665" lon="-61.03391">
        <ele>12.63</ele>
        <time>2016-11-12T12:16:10Z</time>
      </trkpt>
      <trkpt lat="14.47664" lon="-61.03393">
        <ele>12.63</ele>
        <time>2016-11-12T12:16:11Z</time>
      </trkpt>
      <trkpt lat="14.47653" lon="-61.03416">
        <ele>13.12</ele>
        <time>2016-11-12T12:16:23Z</time>
      </trkpt>
      <trkpt lat="14.47642" lon="-61.03441">
        <ele>16</ele>
        <time>2016-11-12T12:16:35Z</time>
      </trkpt>
      <trkpt lat="14.47631" lon="-61.03466">
        <ele>16</ele>
        <time>2016-11-12T12:16:47Z</time>
      </trkpt>
      <trkpt lat="14.47622" lon="-61.03491">
        <ele>16.48</ele>
        <time>2016-11-12T12:16:59Z</time>
      </trkpt>
      <trkpt lat="14.47611" lon="-61.03517">
        <ele>16.48</ele>
        <time>2016-11-12T12:17:11Z</time>
      </trkpt>
      <trkpt lat="14.47604" lon="-61.03543">
        <ele>14.56</ele>
        <time>2016-11-12T12:17:23Z</time>
      </trkpt>
      <trkpt lat="14.47594" lon="-61.0357">
        <ele>14.56</ele>
        <time>2016-11-12T12:17:35Z</time>
      </trkpt>
      <trkpt lat="14.47589" lon="-61.03579">
        <ele>14.08</ele>
        <time>2016-11-12T12:17:40Z</time>
      </trkpt>
      <trkpt lat="14.47586" lon="-61.0359">
        <ele>14.56</ele>
        <time>2016-11-12T12:17:45Z</time>
      </trkpt>
      <trkpt lat="14.47573" lon="-61.03619">
        <ele>13.6</ele>
        <time>2016-11-12T12:17:59Z</time>
      </trkpt>
      <trkpt lat="14.47562" lon="-61.03644">
        <ele>15.04</ele>
        <time>2016-11-12T12:18:11Z</time>
      </trkpt>
      <trkpt lat="14.47554" lon="-61.0367">
        <ele>16</ele>
        <time>2016-11-12T12:18:23Z</time>
      </trkpt>
      <trkpt lat="14.47541" lon="-61.03693">
        <ele>16</ele>
        <time>2016-11-12T12:18:36Z</time>
      </trkpt>
      <trkpt lat="14.47531" lon="-61.03715">
        <ele>16.96</ele>
        <time>2016-11-12T12:18:48Z</time>
      </trkpt>
      <trkpt lat="14.4752" lon="-61.03742">
        <ele>18.88</ele>
        <time>2016-11-12T12:19:01Z</time>
      </trkpt>
      <trkpt lat="14.47507" lon="-61.03767">
        <ele>17.44</ele>
        <time>2016-11-12T12:19:14Z</time>
      </trkpt>
      <trkpt lat="14.47493" lon="-61.03793">
        <ele>14.08</ele>
        <time>2016-11-12T12:19:27Z</time>
      </trkpt>
      <trkpt lat="14.47481" lon="-61.03817">
        <ele>13.12</ele>
        <time>2016-11-12T12:19:39Z</time>
      </trkpt>
      <trkpt lat="14.47465" lon="-61.03843">
        <ele>13.12</ele>
        <time>2016-11-12T12:19:53Z</time>
      </trkpt>
      <trkpt lat="14.47449" lon="-61.03872">
        <ele>14.08</ele>
        <time>2016-11-12T12:20:07Z</time>
      </trkpt>
      <trkpt lat="14.47437" lon="-61.03898">
        <ele>14.08</ele>
        <time>2016-11-12T12:20:20Z</time>
      </trkpt>
      <trkpt lat="14.47424" lon="-61.03924">
        <ele>14.56</ele>
        <time>2016-11-12T12:20:33Z</time>
      </trkpt>
      <trkpt lat="14.47409" lon="-61.03953">
        <ele>15.52</ele>
        <time>2016-11-12T12:20:47Z</time>
      </trkpt>
      <trkpt lat="14.47395" lon="-61.03979">
        <ele>13.6</ele>
        <time>2016-11-12T12:21:00Z</time>
      </trkpt>
      <trkpt lat="14.47382" lon="-61.04009">
        <ele>13.12</ele>
        <time>2016-11-12T12:21:13Z</time>
      </trkpt>
      <trkpt lat="14.47371" lon="-61.04035">
        <ele>13.6</ele>
        <time>2016-11-12T12:21:25Z</time>
      </trkpt>
      <trkpt lat="14.4736" lon="-61.04062">
        <ele>14.08</ele>
        <time>2016-11-12T12:21:37Z</time>
      </trkpt>
      <trkpt lat="14.47349" lon="-61.04085">
        <ele>15.04</ele>
        <time>2016-11-12T12:21:48Z</time>
      </trkpt>
      <trkpt lat="14.47341" lon="-61.04108">
        <ele>14.56</ele>
        <time>2016-11-12T12:21:58Z</time>
      </trkpt>
      <trkpt lat="14.47331" lon="-61.04134">
        <ele>14.08</ele>
        <time>2016-11-12T12:22:09Z</time>
      </trkpt>
      <trkpt lat="14.47313" lon="-61.04157">
        <ele>14.08</ele>
        <time>2016-11-12T12:22:21Z</time>
      </trkpt>
      <trkpt lat="14.47296" lon="-61.04175">
        <ele>13.12</ele>
        <time>2016-11-12T12:22:32Z</time>
      </trkpt>
      <trkpt lat="14.47279" lon="-61.042">
        <ele>12.15</ele>
        <time>2016-11-12T12:22:46Z</time>
      </trkpt>
      <trkpt lat="14.47257" lon="-61.04219">
        <ele>11.19</ele>
        <time>2016-11-12T12:22:59Z</time>
      </trkpt>
      <trkpt lat="14.4724" lon="-61.04242">
        <ele>11.19</ele>
        <time>2016-11-12T12:23:11Z</time>
      </trkpt>
      <trkpt lat="14.47221" lon="-61.0426">
        <ele>12.15</ele>
        <time>2016-11-12T12:23:22Z</time>
      </trkpt>
      <trkpt lat="14.4722" lon="-61.04262">
        <ele>12.63</ele>
        <time>2016-11-12T12:23:23Z</time>
      </trkpt>
      <trkpt lat="14.47197" lon="-61.04279">
        <ele>13.6</ele>
        <time>2016-11-12T12:23:35Z</time>
      </trkpt>
      <trkpt lat="14.47196" lon="-61.04281">
        <ele>13.6</ele>
        <time>2016-11-12T12:23:36Z</time>
      </trkpt>
      <trkpt lat="14.47193" lon="-61.04284">
        <ele>14.08</ele>
        <time>2016-11-12T12:23:38Z</time>
      </trkpt>
      <trkpt lat="14.47183" lon="-61.04294">
        <ele>13.12</ele>
        <time>2016-11-12T12:23:44Z</time>
      </trkpt>
      <trkpt lat="14.4716" lon="-61.04315">
        <ele>14.08</ele>
        <time>2016-11-12T12:23:56Z</time>
      </trkpt>
      <trkpt lat="14.47146" lon="-61.04338">
        <ele>14.56</ele>
        <time>2016-11-12T12:24:07Z</time>
      </trkpt>
      <trkpt lat="14.47129" lon="-61.04357">
        <ele>15.04</ele>
        <time>2016-11-12T12:24:19Z</time>
      </trkpt>
      <trkpt lat="14.47125" lon="-61.04362">
        <ele>15.52</ele>
        <time>2016-11-12T12:24:22Z</time>
      </trkpt>
      <trkpt lat="14.47118" lon="-61.04375">
        <ele>14.56</ele>
        <time>2016-11-12T12:24:29Z</time>
      </trkpt>
      <trkpt lat="14.47114" lon="-61.04384">
        <ele>14.08</ele>
        <time>2016-11-12T12:24:37Z</time>
      </trkpt>
    </trkseg>
  </trk>
</gpx>